Time;durP1;ratioP1;P1;durP2;ratioP2;P2;SDS_P1;SDS_P2;PMS_P1;PMS_P2;Temp;Humidity;BMP_temperature;BMP_pressure;BME280_temperature;BME280_humidity;BME280_pressure;Samples;Min_cycle;Max_cycle;Signal;HPM_P1;HPM_P2
2021/08/12 00:01:03;;;;;;;1.47;1.37;;;17.90;99.90;;;;;;5048061;28;20236;-68
2021/08/12 00:03:31;;;;;;;1.77;1.60;;;17.90;99.90;;;;;;5036252;28;20211;-68
2021/08/12 00:05:58;;;;;;;1.83;1.73;;;17.80;99.90;;;;;;5048518;28;20231;-68
2021/08/12 00:08:25;;;;;;;1.63;1.52;;;17.80;99.90;;;;;;5035295;28;20201;-68
2021/08/12 00:10:53;;;;;;;1.42;1.33;;;17.80;99.90;;;;;;5047344;28;20593;-68
2021/08/12 00:13:21;;;;;;;2.65;1.40;;;17.80;99.90;;;;;;5048036;28;20686;-68
2021/08/12 00:15:48;;;;;;;1.43;1.33;;;17.80;99.90;;;;;;5048032;28;20224;-68
2021/08/12 00:18:15;;;;;;;2.03;1.50;;;17.80;99.90;;;;;;5048086;28;20208;-68
2021/08/12 00:20:43;;;;;;;1.52;1.42;;;17.80;99.90;;;;;;5047347;28;20215;-69
2021/08/12 00:23:12;;;;;;;1.60;1.50;;;17.80;99.90;;;;;;5044875;28;20723;-69
2021/08/12 00:25:39;;;;;;;3.63;2.10;;;17.80;99.90;;;;;;5037117;28;20209;-69
2021/08/12 00:28:06;;;;;;;2.03;1.55;;;17.70;99.90;;;;;;5047756;28;20193;-68
2021/08/12 00:30:33;;;;;;;2.20;1.58;;;17.70;99.90;;;;;;5046928;28;20670;-68
2021/08/12 00:33:00;;;;;;;1.83;1.73;;;17.70;99.90;;;;;;5046129;28;20228;-69
2021/08/12 00:35:27;;;;;;;1.70;1.60;;;17.70;99.90;;;;;;5046373;28;20686;-69
2021/08/12 00:37:55;;;;;;;2.57;1.97;;;17.80;99.90;;;;;;5044548;28;20250;-68
2021/08/12 00:40:26;;;;;;;1.95;1.85;;;17.70;99.90;;;;;;5048711;28;20223;-69
2021/08/12 00:42:53;;;;;;;1.67;1.60;;;17.70;99.90;;;;;;5050391;28;20237;-68
2021/08/12 00:45:21;;;;;;;2.28;2.00;;;17.70;99.90;;;;;;5050850;28;20210;-69
2021/08/12 00:47:48;;;;;;;1.83;1.70;;;17.70;99.90;;;;;;5050093;28;20210;-68
2021/08/12 00:50:16;;;;;;;2.92;2.00;;;17.70;99.90;;;;;;5050313;28;20693;-68
2021/08/12 00:52:45;;;;;;;2.03;1.90;;;17.70;99.90;;;;;;5048499;28;20213;-69
2021/08/12 00:55:15;;;;;;;1.73;1.53;;;17.70;99.90;;;;;;5052550;28;20202;-69
2021/08/12 00:57:42;;;;;;;1.85;1.73;;;17.60;99.90;;;;;;5043904;28;20658;-69
2021/08/12 01:00:10;;;;;;;2.05;1.80;;;17.60;99.90;;;;;;5050600;28;20265;-69
2021/08/12 01:02:39;;;;;;;1.80;1.70;;;17.60;99.90;;;;;;5066590;28;20220;-69
2021/08/12 01:05:09;;;;;;;1.97;1.83;;;17.60;99.90;;;;;;5050057;28;20208;-69
2021/08/12 01:07:47;;;;;;;1.92;1.73;;;17.60;99.90;;;;;;5053286;28;20251;-69
2021/08/12 01:10:22;;;;;;;2.00;1.50;;;17.60;99.90;;;;;;5050015;28;20245;-69
2021/08/12 01:12:57;;;;;;;2.03;1.90;;;17.60;99.90;;;;;;5051701;28;20220;-68
2021/08/12 01:15:29;;;;;;;3.23;2.03;;;17.60;99.90;;;;;;5051370;28;20226;-68
2021/08/12 01:18:04;;;;;;;1.57;1.47;;;17.60;99.90;;;;;;5062450;28;20268;-68
2021/08/12 01:21:10;;;;;;;2.03;1.93;;;17.60;99.90;;;;;;5050240;28;20256;-69
2021/08/12 01:23:38;;;;;;;1.75;1.65;;;17.60;99.90;;;;;;5048137;28;20197;-69
2021/08/12 01:26:08;;;;;;;1.67;1.57;;;17.60;99.90;;;;;;5045736;28;20208;-69
2021/08/12 01:28:42;;;;;;;1.83;1.50;;;17.50;99.90;;;;;;5049677;28;20224;-69
2021/08/12 01:31:25;;;;;;;3.55;1.90;;;17.50;99.90;;;;;;5049798;28;20219;-69
2021/08/12 01:34:03;;;;;;;2.70;1.83;;;17.60;99.90;;;;;;5047804;28;20203;-69
2021/08/12 01:36:36;;;;;;;1.97;1.80;;;17.50;99.90;;;;;;5049985;28;20554;-69
2021/08/12 01:39:05;;;;;;;1.97;1.83;;;17.60;99.90;;;;;;5058051;28;20315;-69
2021/08/12 01:41:33;;;;;;;1.57;1.47;;;17.50;99.90;;;;;;5043018;28;20214;-69
2021/08/12 01:44:02;;;;;;;1.58;1.50;;;17.50;99.90;;;;;;5048525;28;20654;-69
2021/08/12 01:46:29;;;;;;;1.23;1.23;;;17.50;99.90;;;;;;5041713;28;20220;-69
2021/08/12 01:48:59;;;;;;;1.30;1.30;;;17.50;99.90;;;;;;5049070;28;20207;-69
2021/08/12 01:51:27;;;;;;;2.00;1.80;;;17.50;99.90;;;;;;5044829;28;20268;-69
2021/08/12 01:53:57;;;;;;;1.52;1.40;;;17.50;99.90;;;;;;5047250;28;20195;-69
2021/08/12 01:56:26;;;;;;;1.50;1.40;;;17.50;99.90;;;;;;5062487;28;20211;-69
2021/08/12 01:58:54;;;;;;;1.60;1.50;;;17.50;99.90;;;;;;5049613;28;20693;-69
2021/08/12 02:01:22;;;;;;;1.50;1.40;;;17.50;99.90;;;;;;5049340;28;20301;-69
2021/08/12 02:03:50;;;;;;;2.33;1.40;;;17.50;99.90;;;;;;5048824;28;20240;-69
2021/08/12 02:06:17;;;;;;;1.60;1.50;;;17.50;99.90;;;;;;5049297;28;20215;-69
2021/08/12 02:08:44;;;;;;;1.70;1.60;;;17.50;99.90;;;;;;5047727;28;20198;-69
2021/08/12 02:11:13;;;;;;;1.90;1.70;;;17.50;99.90;;;;;;5048000;28;20196;-69
2021/08/12 02:13:40;;;;;;;1.73;1.63;;;17.50;99.90;;;;;;5053707;28;20289;-69
2021/08/12 02:16:09;;;;;;;1.90;1.73;;;17.50;99.90;;;;;;5037652;28;20212;-69
2021/08/12 02:18:40;;;;;;;1.60;1.50;;;17.40;99.90;;;;;;5049116;28;20283;-69
2021/08/12 02:21:11;;;;;;;1.40;1.40;;;17.40;99.90;;;;;;5048114;28;20231;-68
2021/08/12 02:23:45;;;;;;;1.60;1.50;;;17.40;99.90;;;;;;5045375;28;20198;-69
2021/08/12 02:26:18;;;;;;;1.70;1.60;;;17.40;99.90;;;;;;5045432;28;20202;-69
2021/08/12 02:28:46;;;;;;;1.70;1.60;;;17.30;99.90;;;;;;5051727;28;20238;-69
2021/08/12 02:31:15;;;;;;;1.70;1.60;;;17.40;99.90;;;;;;5049976;28;20204;-69
2021/08/12 02:33:46;;;;;;;2.00;1.80;;;17.40;99.90;;;;;;5047965;28;20474;-69
2021/08/12 02:36:14;;;;;;;1.70;1.60;;;17.30;99.90;;;;;;5055846;28;20234;-69
2021/08/12 02:38:45;;;;;;;1.47;1.37;;;17.30;99.90;;;;;;5046609;28;20201;-69
2021/08/12 02:41:18;;;;;;;1.57;1.47;;;17.30;99.90;;;;;;5047564;28;20222;-69
2021/08/12 02:43:48;;;;;;;1.60;1.50;;;17.30;99.90;;;;;;5047785;28;20204;-69
2021/08/12 02:46:16;;;;;;;2.03;1.40;;;17.20;99.90;;;;;;5048307;28;20679;-68
2021/08/12 02:48:45;;;;;;;1.45;1.42;;;17.20;99.90;;;;;;5049289;28;20342;-69
2021/08/12 02:51:14;;;;;;;2.20;1.53;;;17.20;99.90;;;;;;5048091;28;20286;-69
2021/08/12 02:53:42;;;;;;;1.90;1.80;;;17.20;99.90;;;;;;5045954;28;20200;-69
2021/08/12 02:56:11;;;;;;;4.10;2.10;;;17.20;99.90;;;;;;5058057;28;20194;-69
2021/08/12 02:58:42;;;;;;;1.93;1.73;;;17.20;99.90;;;;;;5049412;28;20232;-69
2021/08/12 03:01:11;;;;;;;1.70;1.60;;;17.20;99.90;;;;;;5047623;28;20219;-69
2021/08/12 03:03:39;;;;;;;1.70;1.60;;;17.10;99.90;;;;;;5047224;28;20198;-69
2021/08/12 03:06:10;;;;;;;1.87;1.77;;;17.20;99.90;;;;;;5047426;28;20206;-69
2021/08/12 03:08:39;;;;;;;1.87;1.77;;;17.20;99.90;;;;;;5046355;28;20229;-69
2021/08/12 03:11:08;;;;;;;1.80;1.70;;;17.20;99.90;;;;;;5047300;28;20203;-69
2021/08/12 03:13:36;;;;;;;1.80;1.70;;;17.20;99.90;;;;;;5047536;28;20299;-69
2021/08/12 03:16:06;;;;;;;1.50;1.40;;;17.20;99.90;;;;;;5047143;28;20207;-69
2021/08/12 03:18:34;;;;;;;1.50;1.40;;;17.20;99.90;;;;;;5047868;28;20206;-69
2021/08/12 03:21:06;;;;;;;2.03;1.67;;;17.20;99.90;;;;;;5047433;28;20216;-69
2021/08/12 03:23:33;;;;;;;1.67;1.57;;;17.20;99.90;;;;;;5044526;28;20207;-69
2021/08/12 03:26:03;;;;;;;1.50;1.40;;;17.20;99.90;;;;;;5045986;28;20209;-69
2021/08/12 03:28:30;;;;;;;1.50;1.40;;;17.20;99.90;;;;;;5047664;28;20364;-69
2021/08/12 03:30:58;;;;;;;1.30;1.30;;;17.20;99.90;;;;;;5039582;28;20213;-69
2021/08/12 03:33:28;;;;;;;1.77;1.67;;;17.20;99.90;;;;;;5047320;28;20211;-69
2021/08/12 03:35:56;;;;;;;1.60;1.50;;;17.20;99.90;;;;;;5046930;28;20826;-69
2021/08/12 03:38:23;;;;;;;1.60;1.50;;;17.10;99.90;;;;;;5045640;28;20208;-69
2021/08/12 03:40:51;;;;;;;1.50;1.40;;;17.20;99.90;;;;;;5046868;28;20272;-69
2021/08/12 03:43:18;;;;;;;1.83;1.73;;;17.20;99.90;;;;;;5046162;28;20282;-69
2021/08/12 03:45:46;;;;;;;1.87;1.70;;;17.20;99.90;;;;;;5033567;28;20790;-69
2021/08/12 03:48:13;;;;;;;1.60;1.50;;;17.20;99.90;;;;;;5046622;28;20207;-69
2021/08/12 03:50:41;;;;;;;1.60;1.50;;;17.20;99.90;;;;;;5047198;28;20230;-69
2021/08/12 03:53:08;;;;;;;1.80;1.70;;;17.20;99.90;;;;;;5042835;28;20196;-69
2021/08/12 03:55:36;;;;;;;1.67;1.57;;;17.20;99.90;;;;;;5062708;28;20669;-69
2021/08/12 03:58:03;;;;;;;1.73;1.57;;;17.30;99.90;;;;;;5048716;28;20256;-69
2021/08/12 04:00:31;;;;;;;1.77;1.60;;;17.30;99.90;;;;;;5047184;28;20212;-69
2021/08/12 04:02:58;;;;;;;1.73;1.63;;;17.30;99.90;;;;;;5046538;28;20312;-69
2021/08/12 04:05:26;;;;;;;1.70;1.60;;;17.30;99.90;;;;;;5047077;28;20202;-69
2021/08/12 04:07:54;;;;;;;1.90;1.60;;;17.30;99.90;;;;;;5046675;28;20201;-69
2021/08/12 04:10:21;;;;;;;1.93;1.83;;;17.30;99.90;;;;;;5046192;28;20664;-69
2021/08/12 04:12:50;;;;;;;2.10;1.90;;;17.40;99.90;;;;;;5046603;28;20207;-69
2021/08/12 04:15:18;;;;;;;2.17;1.93;;;17.40;99.90;;;;;;5046150;28;20202;-70
2021/08/12 04:17:45;;;;;;;1.83;1.73;;;17.40;99.90;;;;;;5047692;28;20197;-69
2021/08/12 04:20:13;;;;;;;1.77;1.67;;;17.50;99.90;;;;;;5048595;28;20947;-69
2021/08/12 04:22:40;;;;;;;1.53;1.43;;;17.50;99.90;;;;;;5043947;28;20267;-69
2021/08/12 04:25:09;;;;;;;1.45;1.40;;;17.60;99.90;;;;;;5044800;28;20334;-70
2021/08/12 04:27:37;;;;;;;2.63;1.70;;;17.60;99.90;;;;;;5063249;28;20207;-69
2021/08/12 04:30:06;;;;;;;1.43;1.37;;;17.70;99.90;;;;;;5063592;28;20257;-69
2021/08/12 04:32:33;;;;;;;1.17;1.17;;;17.70;99.90;;;;;;5034814;28;20210;-69
2021/08/12 04:35:01;;;;;;;1.40;1.30;;;17.80;99.90;;;;;;5046398;28;20240;-69
2021/08/12 04:37:36;;;;;;;1.30;1.30;;;17.80;99.90;;;;;;5045979;28;20563;-69
2021/08/12 04:40:05;;;;;;;1.65;1.55;;;17.90;99.90;;;;;;5046930;28;20204;-69
2021/08/12 04:42:33;;;;;;;1.60;1.50;;;17.90;99.90;;;;;;5046840;28;20228;-69
2021/08/12 04:45:00;;;;;;;3.50;1.97;;;18.00;99.90;;;;;;5052619;28;20219;-69
2021/08/12 04:47:27;;;;;;;1.90;1.80;;;18.00;99.90;;;;;;5046480;28;20294;-69
2021/08/12 04:49:55;;;;;;;1.73;1.63;;;18.10;99.90;;;;;;5045703;28;20731;-69
2021/08/12 04:52:22;;;;;;;1.60;1.50;;;18.10;99.90;;;;;;5046652;28;20197;-69
2021/08/12 04:54:50;;;;;;;1.50;1.40;;;18.20;99.90;;;;;;5060976;28;20201;-69
2021/08/12 04:57:18;;;;;;;1.55;1.45;;;18.20;99.90;;;;;;5033222;28;20228;-69
2021/08/12 04:59:46;;;;;;;3.95;1.77;;;18.30;99.90;;;;;;5044633;28;20201;-69
2021/08/12 05:02:13;;;;;;;1.58;1.48;;;18.40;99.90;;;;;;5052400;28;20229;-69
2021/08/12 05:04:40;;;;;;;1.70;1.60;;;18.40;99.90;;;;;;5041918;28;20279;-69
2021/08/12 05:07:07;;;;;;;2.53;1.50;;;18.50;99.90;;;;;;5045444;28;20227;-69
2021/08/12 05:09:35;;;;;;;1.38;1.27;;;18.60;99.90;;;;;;5043937;28;20220;-69
2021/08/12 05:12:02;;;;;;;1.95;1.70;;;18.60;99.90;;;;;;5046392;28;20209;-69
2021/08/12 05:14:30;;;;;;;1.73;1.52;;;18.70;99.90;;;;;;5045394;28;20221;-69
2021/08/12 05:16:58;;;;;;;1.40;1.40;;;18.80;99.90;;;;;;5045824;28;20237;-69
2021/08/12 05:19:28;;;;;;;1.90;1.80;;;18.80;99.90;;;;;;5045853;28;20526;-69
2021/08/12 05:21:55;;;;;;;1.40;1.40;;;18.90;99.90;;;;;;5047614;28;20324;-69
2021/08/12 05:24:23;;;;;;;2.20;2.10;;;19.00;99.90;;;;;;5041599;28;20210;-69
2021/08/12 05:26:52;;;;;;;2.35;2.13;;;19.10;99.90;;;;;;5049815;28;20630;-69
2021/08/12 05:29:19;;;;;;;1.88;1.77;;;19.20;99.90;;;;;;5036430;28;20670;-69
2021/08/12 05:31:46;;;;;;;1.63;1.48;;;19.30;99.90;;;;;;5049704;28;20305;-69
2021/08/12 05:34:14;;;;;;;1.73;1.63;;;19.40;99.90;;;;;;5040428;28;20453;-69
2021/08/12 05:36:42;;;;;;;1.40;1.30;;;19.50;99.90;;;;;;5052752;28;20218;-69
2021/08/12 05:39:09;;;;;;;1.60;1.55;;;19.70;99.90;;;;;;5047076;28;20267;-69
2021/08/12 05:41:37;;;;;;;1.88;1.77;;;19.80;99.90;;;;;;5049671;28;20202;-69
2021/08/12 05:44:05;;;;;;;1.80;1.70;;;19.90;99.90;;;;;;5049169;28;20401;-69
2021/08/12 05:46:32;;;;;;;2.10;1.90;;;20.00;99.90;;;;;;5052275;28;20654;-69
2021/08/12 05:48:59;;;;;;;2.10;1.90;;;20.20;99.90;;;;;;5049228;28;20200;-69
2021/08/12 05:51:30;;;;;;;1.27;1.20;;;20.40;99.90;;;;;;5051274;28;20280;-69
2021/08/12 05:53:57;;;;;;;2.40;1.60;;;20.70;99.90;;;;;;5038778;28;20281;-69
2021/08/12 05:56:24;;;;;;;1.42;1.33;;;21.20;99.90;;;;;;5056335;28;20205;-70
2021/08/12 05:58:51;;;;;;;1.25;1.20;;;21.80;99.90;;;;;;5049016;28;20304;-70
2021/08/12 06:01:18;;;;;;;2.00;1.90;;;22.30;99.90;;;;;;5049123;28;20300;-70
2021/08/12 06:03:46;;;;;;;1.80;1.70;;;22.90;99.90;;;;;;5049464;28;20308;-70
2021/08/12 06:06:15;;;;;;;1.70;1.60;;;23.50;99.90;;;;;;5050273;28;20194;-69
2021/08/12 06:08:44;;;;;;;2.33;2.10;;;24.30;99.90;;;;;;5053538;28;20210;-69
2021/08/12 06:11:12;;;;;;;1.70;1.60;;;25.30;99.90;;;;;;5045843;28;20621;-69
2021/08/12 06:13:39;;;;;;;3.15;1.70;;;26.20;99.90;;;;;;5049271;28;20202;-70
2021/08/12 06:16:08;;;;;;;2.38;1.60;;;27.20;99.90;;;;;;5048476;28;20557;-69
2021/08/12 06:18:37;;;;;;;1.75;1.65;;;28.20;99.90;;;;;;5048803;28;20225;-70
2021/08/12 06:21:04;;;;;;;1.50;1.40;;;29.00;98.30;;;;;;5048446;28;20197;-69
2021/08/12 06:23:31;;;;;;;1.58;1.40;;;29.70;96.10;;;;;;5048320;28;20221;-70
2021/08/12 06:25:59;;;;;;;1.42;1.40;;;30.70;93.40;;;;;;5046121;28;20562;-70
2021/08/12 06:28:27;;;;;;;2.72;1.83;;;31.80;90.50;;;;;;5039527;28;20426;-70
2021/08/12 06:30:55;;;;;;;2.17;1.80;;;33.20;84.40;;;;;;5036510;28;20260;-70
2021/08/12 06:33:22;;;;;;;1.52;1.42;;;34.60;76.90;;;;;;5043888;28;20697;-70
2021/08/12 06:35:49;;;;;;;1.40;1.40;;;36.10;70.80;;;;;;5038986;28;20220;-69
2021/08/12 06:38:17;;;;;;;1.90;1.70;;;37.50;63.90;;;;;;5041940;28;20286;-69
2021/08/12 06:40:45;;;;;;;1.52;1.45;;;37.70;59.90;;;;;;5042672;28;20197;-69
2021/08/12 06:43:14;;;;;;;1.52;1.42;;;38.40;57.60;;;;;;5045070;28;20664;-70
2021/08/12 06:45:52;;;;;;;1.40;1.40;;;39.00;55.80;;;;;;5043589;28;20228;-70
2021/08/12 06:48:19;;;;;;;1.50;1.40;;;40.30;53.30;;;;;;5041996;28;20824;-71
2021/08/12 06:50:47;;;;;;;1.70;1.60;;;41.60;50.90;;;;;;5037601;28;20612;-71
2021/08/12 06:53:14;;;;;;;2.35;1.95;;;42.70;47.80;;;;;;5041031;28;20232;-71
2021/08/12 06:55:41;;;;;;;2.60;1.77;;;43.70;45.00;;;;;;5047659;28;20259;-71
2021/08/12 06:58:09;;;;;;;1.80;1.70;;;44.60;41.00;;;;;;5059976;28;20637;-69
2021/08/12 07:00:37;;;;;;;1.80;1.70;;;45.20;40.00;;;;;;5044505;28;20209;-71
2021/08/12 07:03:04;;;;;;;1.70;1.70;;;46.10;38.80;;;;;;5041194;28;20222;-72
2021/08/12 07:05:31;;;;;;;2.10;2.00;;;46.90;36.60;;;;;;5042236;28;20411;-71
2021/08/12 07:08:00;;;;;;;2.17;2.08;;;47.40;32.50;;;;;;5041859;28;20216;-67
2021/08/12 07:10:28;;;;;;;2.00;1.90;;;47.30;32.70;;;;;;5042489;28;20209;-69
2021/08/12 07:12:54;;;;;;;2.30;2.20;;;46.90;32.80;;;;;;5043245;28;20206;-69
2021/08/12 07:15:22;;;;;;;1.85;1.83;;;46.70;33.20;;;;;;5042002;28;20197;-68
2021/08/12 07:17:50;;;;;;;2.00;1.90;;;46.40;32.40;;;;;;5058432;28;20555;-69
2021/08/12 07:20:19;;;;;;;2.25;2.15;;;46.20;32.80;;;;;;5044535;28;20196;-70
2021/08/12 07:22:48;;;;;;;2.05;2.00;;;46.20;31.70;;;;;;5028191;28;20452;-70
2021/08/12 07:25:20;;;;;;;2.13;2.03;;;45.80;31.60;;;;;;5038106;28;20214;-69
2021/08/12 07:27:49;;;;;;;2.22;2.03;;;46.10;31.60;;;;;;5040834;28;20197;-70
2021/08/12 07:30:18;;;;;;;2.10;2.00;;;46.40;31.00;;;;;;5042244;28;20235;-70
2021/08/12 07:32:45;;;;;;;1.88;1.88;;;46.40;30.30;;;;;;5037002;28;20206;-70
2021/08/12 07:35:14;;;;;;;1.98;1.98;;;46.30;29.90;;;;;;5042412;28;20235;-70
2021/08/12 07:37:42;;;;;;;3.45;2.10;;;46.30;30.00;;;;;;5036175;28;20209;-70
2021/08/12 07:40:10;;;;;;;2.08;1.98;;;46.70;29.90;;;;;;5051057;28;20194;-70
2021/08/12 07:42:37;;;;;;;2.15;2.00;;;47.20;29.70;;;;;;5043640;28;20221;-69
2021/08/12 07:45:06;;;;;;;3.15;2.35;;;47.60;29.10;;;;;;5042851;28;20213;-70
2021/08/12 07:47:33;;;;;;;2.22;2.13;;;47.90;28.80;;;;;;5042012;28;20198;-70
2021/08/12 07:50:01;;;;;;;1.95;1.95;;;47.80;28.70;;;;;;5043560;28;20201;-70
2021/08/12 07:52:29;;;;;;;2.00;1.90;;;47.20;28.80;;;;;;5043675;28;20724;-70
2021/08/12 07:54:56;;;;;;;2.42;2.33;;;47.20;28.80;;;;;;5043642;28;20246;-70
2021/08/12 07:57:23;;;;;;;2.10;2.00;;;47.60;28.50;;;;;;5044811;28;20194;-70
2021/08/12 07:59:50;;;;;;;2.47;2.20;;;47.40;28.20;;;;;;5041855;28;20197;-70
2021/08/12 08:02:17;;;;;;;1.90;1.90;;;47.40;28.20;;;;;;5056770;28;20204;-70
2021/08/12 08:04:45;;;;;;;2.15;2.05;;;47.90;28.10;;;;;;5055403;28;20317;-70
2021/08/12 08:07:12;;;;;;;2.00;2.00;;;48.10;27.80;;;;;;5042075;28;20469;-70
2021/08/12 08:09:40;;;;;;;2.00;2.00;;;48.50;27.60;;;;;;5043724;28;20189;-70
2021/08/12 08:12:08;;;;;;;2.38;2.28;;;49.10;27.30;;;;;;5044343;28;20329;-70
2021/08/12 08:14:34;;;;;;;2.40;2.30;;;49.70;26.80;;;;;;5045100;28;20202;-70
2021/08/12 08:17:01;;;;;;;2.40;2.30;;;49.70;26.50;;;;;;5041894;28;20212;-70
2021/08/12 08:19:29;;;;;;;2.05;1.95;;;49.10;26.30;;;;;;5044203;28;20558;-69
2021/08/12 08:21:56;;;;;;;2.08;1.98;;;48.90;26.70;;;;;;5043566;28;20229;-68
2021/08/12 08:24:23;;;;;;;2.28;2.10;;;49.30;26.30;;;;;;5041939;28;20205;-68
2021/08/12 08:26:53;;;;;;;2.38;2.28;;;49.70;26.10;;;;;;5043362;28;20224;-68
2021/08/12 08:29:20;;;;;;;2.53;2.33;;;50.10;25.40;;;;;;5042046;28;20203;-69
2021/08/12 08:31:47;;;;;;;2.47;2.38;;;50.10;25.10;;;;;;5044367;28;20283;-73
2021/08/12 08:34:14;;;;;;;2.20;2.10;;;50.40;25.20;;;;;;5043631;28;20213;-68
2021/08/12 08:36:41;;;;;;;2.08;2.08;;;50.30;24.90;;;;;;5041097;28;20800;-68
2021/08/12 08:39:10;;;;;;;2.00;2.00;;;50.40;25.00;;;;;;5042000;28;20201;-67
2021/08/12 08:41:38;;;;;;;2.35;2.35;;;50.40;24.80;;;;;;5041245;28;20193;-68
2021/08/12 08:44:08;;;;;;;2.20;2.10;;;49.80;25.00;;;;;;5041937;28;20259;-68
2021/08/12 08:46:35;;;;;;;2.40;2.28;;;50.10;25.00;;;;;;5043496;28;20197;-67
2021/08/12 08:49:04;;;;;;;2.22;2.22;;;50.70;24.80;;;;;;5041829;28;20207;-68
2021/08/12 08:51:35;;;;;;;2.35;2.25;;;50.50;24.40;;;;;;5041670;28;20617;-68
2021/08/12 08:54:02;;;;;;;2.30;2.30;;;49.90;24.40;;;;;;5041059;28;20310;-68
2021/08/12 08:56:29;;;;;;;2.83;2.63;;;49.60;24.30;;;;;;5043558;28;20209;-68
2021/08/12 08:58:56;;;;;;;2.40;2.30;;;49.70;24.40;;;;;;5043910;28;20205;-68
2021/08/12 09:01:25;;;;;;;2.50;2.38;;;50.30;24.10;;;;;;5046418;28;20392;-68
2021/08/12 09:03:52;;;;;;;2.40;2.30;;;49.90;23.60;;;;;;5045088;28;20262;-68
2021/08/12 09:06:21;;;;;;;2.10;2.10;;;49.80;23.60;;;;;;5044775;28;20683;-68
2021/08/12 09:08:47;;;;;;;2.10;2.10;;;50.30;23.70;;;;;;5046287;28;20657;-68
2021/08/12 09:11:14;;;;;;;2.30;2.30;;;50.90;23.70;;;;;;5046892;28;20234;-68
2021/08/12 09:13:41;;;;;;;2.30;2.20;;;51.40;23.10;;;;;;5047911;28;20522;-67
2021/08/12 09:16:31;;;;;;;1.98;1.98;;;51.70;23.10;;;;;;5044474;28;20209;-69
2021/08/12 09:19:12;;;;;;;2.50;2.40;;;52.00;23.10;;;;;;5045727;28;20726;-68
2021/08/12 09:21:39;;;;;;;2.70;2.60;;;52.50;22.90;;;;;;5045384;28;20304;-68
2021/08/12 09:24:07;;;;;;;2.78;2.67;;;52.90;22.30;;;;;;5044497;28;20193;-69
2021/08/12 09:26:38;;;;;;;2.20;2.13;;;52.10;22.30;;;;;;5046221;28;20198;-69
2021/08/12 09:29:06;;;;;;;2.55;2.45;;;50.90;22.90;;;;;;5045520;28;20201;-69
2021/08/12 09:31:34;;;;;;;2.40;2.30;;;49.20;23.40;;;;;;5052685;28;20866;-68
2021/08/12 09:34:12;;;;;;;2.50;2.40;;;48.80;24.00;;;;;;5047033;28;20229;-68
2021/08/12 09:36:39;;;;;;;2.50;2.40;;;48.70;24.00;;;;;;5040828;28;20518;-70
2021/08/12 09:39:12;;;;;;;2.47;2.38;;;48.40;24.20;;;;;;5037540;28;20194;-67
2021/08/12 09:41:43;;;;;;;2.35;2.25;;;47.40;24.20;;;;;;5041850;28;20225;-68
2021/08/12 09:44:30;;;;;;;1.77;1.77;;;47.20;24.60;;;;;;5048156;28;20215;-68
2021/08/12 09:46:59;;;;;;;1.85;1.85;;;48.00;24.50;;;;;;5046799;28;20232;-68
2021/08/12 09:49:26;;;;;;;2.30;2.20;;;48.00;24.20;;;;;;5043573;28;20225;-68
2021/08/12 09:51:53;;;;;;;2.40;2.30;;;47.50;24.40;;;;;;5045590;28;20701;-67
2021/08/12 09:54:28;;;;;;;2.28;2.17;;;48.00;24.50;;;;;;5044809;28;20217;-67
2021/08/12 09:56:57;;;;;;;2.05;2.05;;;48.70;24.00;;;;;;5050945;28;20413;-67
2021/08/12 09:59:24;;;;;;;3.67;2.33;;;49.00;23.90;;;;;;5047869;28;20201;-67
2021/08/12 10:02:12;;;;;;;2.50;2.40;;;49.80;23.70;;;;;;5060222;28;20627;-67
2021/08/12 10:04:39;;;;;;;2.53;2.42;;;50.50;23.40;;;;;;5045731;28;20280;-67
2021/08/12 10:07:06;;;;;;;2.30;2.20;;;49.90;23.60;;;;;;5047573;28;20197;-68
2021/08/12 10:09:40;;;;;;;2.03;2.03;;;50.00;23.50;;;;;;5042903;28;20204;-68
2021/08/12 10:12:08;;;;;;;2.50;2.40;;;50.20;23.30;;;;;;5046722;28;20197;-68
2021/08/12 10:14:34;;;;;;;2.25;2.15;;;48.70;22.80;;;;;;5046994;28;20216;-68
2021/08/12 10:17:03;;;;;;;2.22;2.13;;;46.80;24.00;;;;;;5046134;28;20205;-68
2021/08/12 10:19:31;;;;;;;2.13;2.03;;;46.10;24.50;;;;;;5044632;28;20225;-68
2021/08/12 10:21:58;;;;;;;2.78;2.58;;;46.90;24.60;;;;;;5045612;28;20229;-68
2021/08/12 10:24:28;;;;;;;2.90;2.78;;;48.00;24.30;;;;;;5045290;28;20208;-68
2021/08/12 10:26:56;;;;;;;2.40;2.30;;;47.70;23.90;;;;;;5044751;28;20569;-68
2021/08/12 10:29:25;;;;;;;2.47;2.38;;;46.00;24.20;;;;;;5045470;28;20761;-68
2021/08/12 10:31:54;;;;;;;2.20;2.13;;;44.30;25.20;;;;;;5047650;28;20204;-67
2021/08/12 10:34:24;;;;;;;2.17;2.08;;;42.60;26.00;;;;;;5045272;28;20236;-67
2021/08/12 10:36:51;;;;;;;2.10;2.00;;;41.30;26.70;;;;;;5046578;28;20607;-67
2021/08/12 10:39:20;;;;;;;2.28;2.13;;;41.60;27.00;;;;;;5042581;28;20205;-68
2021/08/12 10:41:48;;;;;;;2.42;2.08;;;42.70;26.50;;;;;;5046184;28;20697;-68
2021/08/12 10:44:19;;;;;;;2.10;2.00;;;44.00;25.70;;;;;;5047644;28;20703;-67
2021/08/12 10:46:46;;;;;;;3.05;2.40;;;45.30;25.30;;;;;;5044329;28;20346;-67
2021/08/12 10:49:29;;;;;;;5.38;2.63;;;46.60;24.60;;;;;;5044111;28;20736;-67
2021/08/12 10:52:04;;;;;;;3.90;2.85;;;46.80;24.40;;;;;;5045835;28;20589;-67
2021/08/12 10:54:32;;;;;;;7.80;3.03;;;45.40;24.80;;;;;;5041949;28;20256;-67
2021/08/12 10:57:19;;;;;;;2.50;2.30;;;43.80;25.70;;;;;;5045910;28;20251;-67
2021/08/12 10:59:47;;;;;;;3.75;2.30;;;41.70;26.60;;;;;;5043615;28;20205;-67
2021/08/12 11:02:47;;;;;;;2.08;1.98;;;40.30;27.50;;;;;;5043964;28;20693;-67
2021/08/12 11:05:17;;;;;;;5.65;2.20;;;39.10;28.40;;;;;;4942806;28;21400;-67
2021/08/12 11:07:50;;;;;;;2.67;2.10;;;38.00;29.60;;;;;;4958953;28;20203;-67
2021/08/12 11:10:18;;;;;;;2.35;2.15;;;37.60;30.30;;;;;;4959313;28;20767;-67
2021/08/12 11:13:01;;;;;;;1.73;1.73;;;38.60;30.40;;;;;;4963308;28;20196;-67
2021/08/12 11:15:59;;;;;;;2.28;1.70;;;40.00;29.40;;;;;;4963994;28;20457;-67
2021/08/12 11:18:46;;;;;;;1.70;1.60;;;39.50;29.30;;;;;;4960001;28;20306;-67
2021/08/12 11:21:40;;;;;;;2.97;1.75;;;38.40;30.00;;;;;;4966698;28;20295;-67
2021/08/12 11:24:08;;;;;;;1.65;1.55;;;37.70;30.90;;;;;;4959810;28;20212;-66
2021/08/12 11:27:06;;;;;;;1.40;1.30;;;36.70;32.10;;;;;;4961628;28;20204;-67
2021/08/12 11:29:35;;;;;;;1.63;1.50;;;35.50;33.50;;;;;;4961834;28;20216;-67
2021/08/12 11:32:10;;;;;;;1.30;1.30;;;34.70;34.60;;;;;;4964110;28;20206;-67
2021/08/12 11:34:42;;;;;;;2.38;1.25;;;34.20;35.50;;;;;;4962062;28;20383;-67
2021/08/12 11:37:15;;;;;;;1.45;1.23;;;34.00;35.90;;;;;;5035754;28;20223;-67
2021/08/12 11:39:54;;;;;;;4.00;1.50;;;34.00;36.10;;;;;;5043324;28;20205;-67
2021/08/12 11:42:23;;;;;;;1.23;1.10;;;33.70;36.30;;;;;;5039548;28;20737;-67
2021/08/12 11:44:50;;;;;;;1.35;1.25;;;33.20;37.20;;;;;;5044349;28;20193;-66
2021/08/12 11:47:17;;;;;;;1.50;1.40;;;32.90;37.90;;;;;;5045763;28;20206;-66
2021/08/12 11:49:48;;;;;;;1.48;1.38;;;32.70;38.40;;;;;;5044064;28;20202;-67
2021/08/12 11:52:23;;;;;;;2.47;1.30;;;32.50;38.70;;;;;;5040052;28;20237;-67
2021/08/12 11:54:55;;;;;;;1.55;1.17;;;32.30;39.30;;;;;;5051865;28;20271;-67
2021/08/12 11:57:37;;;;;;;4.70;1.38;;;31.90;39.80;;;;;;5041438;28;20486;-67
2021/08/12 12:00:07;;;;;;;1.00;1.00;;;31.60;40.30;;;;;;5044047;28;20644;-68
2021/08/12 12:02:48;;;;;;;1.15;1.10;;;31.80;40.20;;;;;;5045359;28;20478;-68
2021/08/12 12:05:17;;;;;;;1.98;1.35;;;31.70;40.10;;;;;;5045932;28;20198;-67
2021/08/12 12:07:47;;;;;;;3.17;1.45;;;31.90;40.30;;;;;;5035281;28;20505;-68
2021/08/12 12:10:23;;;;;;;0.93;0.93;;;32.20;40.10;;;;;;5044493;28;20313;-68
2021/08/12 12:12:51;;;;;;;1.13;1.13;;;32.40;40.00;;;;;;5040307;28;20202;-68
2021/08/12 12:15:32;;;;;;;2.08;1.40;;;32.60;40.10;;;;;;5039817;28;20249;-68
2021/08/12 12:17:59;;;;;;;1.30;1.20;;;32.40;40.20;;;;;;5044044;28;20221;-68
2021/08/12 12:20:27;;;;;;;1.15;1.02;;;32.40;40.40;;;;;;5042067;28;20275;-68
2021/08/12 12:23:00;;;;;;;2.55;1.10;;;32.10;40.70;;;;;;5043313;28;20515;-68
2021/08/12 12:25:29;;;;;;;1.70;1.20;;;31.60;41.40;;;;;;5043670;28;20194;-67
2021/08/12 12:27:57;;;;;;;1.55;1.45;;;31.10;42.30;;;;;;5040153;28;20212;-67
2021/08/12 12:30:26;;;;;;;1.20;1.10;;;30.70;43.20;;;;;;5042778;28;20593;-67
2021/08/12 12:33:01;;;;;;;1.48;1.15;;;30.20;43.70;;;;;;5041083;28;20217;-68
2021/08/12 12:35:29;;;;;;;4.20;1.45;;;29.90;44.50;;;;;;5045233;28;20221;-68
2021/08/12 12:37:59;;;;;;;0.90;0.90;;;29.50;45.40;;;;;;5040590;28;20642;-65
2021/08/12 12:40:30;;;;;;;1.13;1.13;;;29.30;45.70;;;;;;5041371;28;20245;-70
2021/08/12 12:42:58;;;;;;;1.25;1.17;;;29.10;46.20;;;;;;5041109;28;20214;-67
2021/08/12 12:45:25;;;;;;;3.05;1.33;;;29.00;46.30;;;;;;5042342;28;20197;-67
2021/08/12 12:47:52;;;;;;;1.40;1.02;;;28.80;46.90;;;;;;5043105;28;20740;-68
2021/08/12 12:50:21;;;;;;;1.02;1.02;;;28.50;47.10;;;;;;5043816;28;20205;-68
2021/08/12 12:53:10;;;;;;;1.00;1.00;;;28.20;47.50;;;;;;5041927;28;20194;-67
2021/08/12 12:55:38;;;;;;;2.85;1.40;;;28.10;48.00;;;;;;5040359;28;20218;-68
2021/08/12 12:58:19;;;;;;;3.22;1.30;;;27.90;48.50;;;;;;5042378;28;20666;-68
2021/08/12 13:00:58;;;;;;;2.13;1.10;;;27.80;48.70;;;;;;5039219;28;20194;-68